Time;durP1;ratioP1;P1;durP2;ratioP2;P2;SDS_P1;SDS_P2;PMS_P1;PMS_P2;Temp;Humidity;BMP_temperature;BMP_pressure;BME280_temperature;BME280_humidity;BME280_pressure;Samples;Min_cycle;Max_cycle;Signal;HPM_P1;HPM_P2
2022/07/11 00:01:44;;;;;;;4.47;1.23;;;;;;;22.99;43.88;98472.72;5007350;28;20030;-59
2022/07/11 00:04:10;;;;;;;4.15;1.40;;;;;;;22.97;43.55;98470.28;5003682;28;20038;-61
2022/07/11 00:06:35;;;;;;;3.10;1.10;;;;;;;23.03;43.12;98468.56;4985116;28;20022;-59
2022/07/11 00:09:01;;;;;;;3.03;1.10;;;;;;;22.90;43.16;98474.88;4990107;28;20025;-59
2022/07/11 00:11:26;;;;;;;4.85;1.10;;;;;;;22.83;42.89;98471.53;4984899;28;20061;-60
2022/07/11 00:13:52;;;;;;;4.53;1.33;;;;;;;22.79;42.54;98471.19;4987175;28;20484;-58
2022/07/11 00:16:17;;;;;;;4.10;1.13;;;;;;;22.87;42.19;98469.25;5002291;28;20724;-61
2022/07/11 00:18:42;;;;;;;3.78;1.30;;;;;;;22.95;42.10;98472.38;5002213;28;20092;-59
2022/07/11 00:21:08;;;;;;;14.45;2.80;;;;;;;22.93;42.00;98471.00;5002699;28;20136;-59
2022/07/11 00:23:33;;;;;;;18.40;3.75;;;;;;;22.76;41.91;98460.22;5030743;28;20526;-60
2022/07/11 00:25:59;;;;;;;16.48;3.45;;;;;;;22.72;43.01;98472.31;5002802;28;20381;-60
2022/07/11 00:28:25;;;;;;;50.83;7.15;;;;;;;22.44;42.86;98432.16;5004094;28;20063;-59
2022/07/11 00:30:52;;;;;;;19.52;3.15;;;;;;;22.37;43.73;98479.13;5003193;28;20362;-60
2022/07/11 00:33:18;;;;;;;8.45;1.73;;;;;;;22.54;42.51;98473.19;5000766;28;20030;-62
2022/07/11 00:35:43;;;;;;;7.53;1.48;;;;;;;22.63;42.59;98474.47;5003626;28;20029;-59
2022/07/11 00:38:08;;;;;;;9.55;1.80;;;;;;;22.53;43.13;98480.34;4977222;28;20022;-59
2022/07/11 00:40:34;;;;;;;5.30;1.17;;;;;;;22.46;43.15;98471.66;4985400;28;20022;-60
2022/07/11 00:42:59;;;;;;;6.10;1.40;;;;;;;22.27;43.72;98450.53;5001857;28;20665;-59
2022/07/11 00:45:25;;;;;;;5.18;1.30;;;;;;;22.41;43.73;98485.56;4989779;28;20023;-60
2022/07/11 00:47:50;;;;;;;5.85;1.15;;;;;;;22.31;43.36;98495.13;4999319;28;20072;-62
2022/07/11 00:50:16;;;;;;;3.72;1.13;;;;;;;22.20;44.03;98500.09;5002052;28;20049;-62
2022/07/11 00:52:42;;;;;;;5.85;1.30;;;;;;;22.08;44.41;98481.47;5000517;28;20105;-60
2022/07/11 00:55:09;;;;;;;7.45;1.33;;;;;;;22.28;43.98;98504.28;5002095;28;20033;-60
2022/07/11 00:57:35;;;;;;;4.63;1.33;;;;;;;21.87;43.41;98458.94;4990172;28;20022;-59
2022/07/11 01:00:01;;;;;;;4.10;1.30;;;;;;;22.00;44.24;98499.53;4999712;28;20483;-60
2022/07/11 01:02:26;;;;;;;7.90;1.48;;;;;;;22.06;45.02;98493.34;4999490;28;20030;-59
2022/07/11 01:04:52;;;;;;;6.13;1.48;;;;;;;21.74;44.29;98453.81;4996349;28;20033;-61
2022/07/11 01:07:17;;;;;;;7.50;1.50;;;;;;;21.99;43.88;98493.41;5006614;28;20029;-62
2022/07/11 01:09:43;;;;;;;4.90;1.48;;;;;;;22.04;44.35;98492.75;5002681;28;20041;-60
2022/07/11 01:12:09;;;;;;;11.30;1.70;;;;;;;22.18;45.57;98488.13;4995529;28;20030;-61
2022/07/11 01:14:34;;;;;;;8.43;1.67;;;;;;;22.26;45.28;98490.47;4985194;28;20029;-60
2022/07/11 01:16:59;;;;;;;6.32;1.50;;;;;;;22.10;45.20;98499.00;4998533;28;20688;-60
2022/07/11 01:19:25;;;;;;;6.18;1.20;;;;;;;22.04;45.59;98490.91;4997423;28;20485;-62
2022/07/11 01:21:51;;;;;;;6.93;1.60;;;;;;;22.18;45.32;98494.22;4999849;28;20461;-62
2022/07/11 01:24:17;;;;;;;9.02;1.75;;;;;;;22.23;45.48;98501.47;4997206;28;20053;-61
2022/07/11 01:26:44;;;;;;;9.25;1.65;;;;;;;22.14;44.93;98501.00;5002180;28;20021;-61
2022/07/11 01:29:11;;;;;;;10.55;2.10;;;;;;;22.19;45.45;98497.66;4999862;28;20026;-62
2022/07/11 01:31:43;;;;;;;6.72;1.83;;;;;;;22.15;45.30;98499.16;4999540;28;20018;-59
2022/07/11 01:34:09;;;;;;;8.52;1.55;;;;;;;21.59;45.62;98475.31;4986735;28;20562;-61
2022/07/11 01:36:35;;;;;;;6.88;1.60;;;;;;;21.75;45.92;98499.59;4993518;28;20021;-61
2022/07/11 01:39:01;;;;;;;8.05;1.45;;;;;;;21.58;45.24;98468.41;5002315;28;20022;-59
2022/07/11 01:41:26;;;;;;;6.07;1.50;;;;;;;21.85;44.95;98499.91;4997382;28;20026;-60
2022/07/11 01:43:52;;;;;;;6.00;1.20;;;;;;;21.88;44.59;98515.31;4997063;28;20041;-60
2022/07/11 01:46:19;;;;;;;5.32;1.20;;;;;;;21.89;45.30;98511.66;5000924;28;20748;-60
2022/07/11 01:48:44;;;;;;;3.10;1.08;;;;;;;21.63;45.36;98479.16;4997250;28;20093;-60
2022/07/11 01:51:10;;;;;;;5.43;1.35;;;;;;;21.82;45.40;98518.84;4997980;28;20611;-59
2022/07/11 01:53:35;;;;;;;4.05;1.30;;;;;;;21.56;45.44;98494.28;5000903;28;20033;-60
2022/07/11 01:56:01;;;;;;;5.90;1.40;;;;;;;21.78;45.37;98510.53;5002483;28;20025;-60
2022/07/11 01:58:27;;;;;;;4.70;1.48;;;;;;;21.51;45.36;98472.97;5007682;28;20607;-59
2022/07/11 02:00:52;;;;;;;5.90;1.27;;;;;;;21.68;45.70;98511.06;5003521;28;20028;-59
2022/07/11 02:03:17;;;;;;;5.05;1.30;;;;;;;21.62;45.66;98509.28;4979988;28;20034;-60
2022/07/11 02:05:43;;;;;;;5.05;1.35;;;;;;;21.55;46.05;98510.38;5021129;28;20441;-59
2022/07/11 02:08:11;;;;;;;5.60;1.50;;;;;;;21.60;45.81;98508.69;4984690;28;20026;-59
2022/07/11 02:10:55;;;;;;;5.35;1.50;;;;;;;21.60;46.79;98516.63;4999611;28;20172;-58
2022/07/11 02:13:23;;;;;;;5.63;1.42;;;;;;;21.66;46.23;98521.03;4996972;28;20036;-59
2022/07/11 02:15:50;;;;;;;4.05;1.40;;;;;;;21.37;46.62;98482.03;5007147;28;20025;-61
2022/07/11 02:18:17;;;;;;;3.95;1.42;;;;;;;21.53;46.41;98520.38;5001113;28;20022;-62
2022/07/11 02:20:45;;;;;;;7.05;1.38;;;;;;;21.54;46.70;98524.63;5000713;28;20022;-59
2022/07/11 02:23:12;;;;;;;3.10;1.30;;;;;;;21.61;46.14;98530.66;5001759;28;20468;-58
2022/07/11 02:25:38;;;;;;;4.03;1.20;;;;;;;21.15;46.56;98494.81;4985192;28;20034;-60
2022/07/11 02:28:05;;;;;;;3.92;1.10;;;;;;;21.34;46.96;98524.75;5000597;28;20069;-58
2022/07/11 02:30:30;;;;;;;4.30;1.27;;;;;;;21.41;47.02;98536.09;4991845;28;20034;-60
2022/07/11 02:32:56;;;;;;;4.88;1.65;;;;;;;21.29;47.46;98528.88;5000886;28;20290;-59
2022/07/11 02:35:21;;;;;;;3.97;1.20;;;;;;;21.25;47.79;98530.31;5001079;28;20037;-58
2022/07/11 02:37:48;;;;;;;3.70;1.20;;;;;;;21.01;47.97;98500.22;4999496;28;20022;-59
2022/07/11 02:40:13;;;;;;;3.95;1.30;;;;;;;21.20;48.14;98534.66;4984696;28;20038;-59
2022/07/11 02:42:39;;;;;;;3.50;1.10;;;;;;;21.17;47.97;98535.88;5000508;28;20040;-58
2022/07/11 02:45:07;;;;;;;3.20;1.27;;;;;;;20.96;48.14;98496.59;5000182;28;20038;-58
2022/07/11 02:47:35;;;;;;;4.35;1.60;;;;;;;21.10;48.07;98528.00;5001900;28;20025;-60
2022/07/11 02:50:00;;;;;;;4.75;1.40;;;;;;;21.11;47.45;98524.31;5002009;28;20018;-59
2022/07/11 02:52:25;;;;;;;6.50;1.40;;;;;;;21.16;48.10;98528.97;4995766;28;20029;-61
2022/07/11 02:54:51;;;;;;;4.20;1.10;;;;;;;21.13;48.23;98534.69;4998617;28;20080;-58
2022/07/11 02:57:16;;;;;;;3.25;1.08;;;;;;;20.89;48.13;98492.16;4984329;28;20025;-59
2022/07/11 02:59:41;;;;;;;2.53;1.05;;;;;;;21.02;47.75;98495.75;5000144;28;20033;-59
2022/07/11 03:02:07;;;;;;;4.10;1.23;;;;;;;21.07;48.02;98498.56;5001157;28;20342;-59
2022/07/11 03:04:32;;;;;;;6.70;1.33;;;;;;;21.30;48.39;98534.94;5001055;28;20044;-60
2022/07/11 03:06:58;;;;;;;3.42;1.20;;;;;;;21.21;48.06;98537.09;4999228;28;20026;-61
2022/07/11 03:09:24;;;;;;;7.40;1.92;;;;;;;21.18;48.20;98537.50;5000519;28;20030;-60
2022/07/11 03:11:50;;;;;;;4.53;1.70;;;;;;;21.11;49.10;98532.25;5001157;28;20022;-59
2022/07/11 03:14:16;;;;;;;4.63;1.23;;;;;;;20.86;48.72;98497.91;5003200;28;20030;-58
2022/07/11 03:16:42;;;;;;;6.13;1.20;;;;;;;20.89;49.12;98494.81;4992693;28;20018;-58
2022/07/11 03:19:08;;;;;;;3.13;1.00;;;;;;;21.13;49.18;98537.34;5001133;28;20446;-59
2022/07/11 03:21:33;;;;;;;3.13;1.10;;;;;;;21.17;49.94;98543.78;4997796;28;20445;-58
2022/07/11 03:23:58;;;;;;;3.85;1.40;;;;;;;21.24;49.71;98543.75;5003256;28;20605;-59
2022/07/11 03:26:24;;;;;;;4.97;1.20;;;;;;;21.17;49.75;98545.63;5002203;28;20533;-59
2022/07/11 03:28:49;;;;;;;5.40;1.77;;;;;;;20.90;49.76;98507.00;5006738;28;20029;-60
2022/07/11 03:31:14;;;;;;;4.20;1.35;;;;;;;21.10;50.14;98540.38;5002937;28;20025;-62
2022/07/11 03:33:40;;;;;;;5.65;1.33;;;;;;;20.92;50.83;98535.88;4984962;28;20025;-60
2022/07/11 03:36:06;;;;;;;4.13;1.40;;;;;;;20.95;50.25;98543.34;4999491;28;20473;-59
2022/07/11 03:38:31;;;;;;;5.72;1.52;;;;;;;21.01;50.28;98547.78;5001391;28;20523;-58
2022/07/11 03:40:56;;;;;;;5.18;1.25;;;;;;;20.98;49.79;98556.16;5003843;28;20018;-59
2022/07/11 03:43:22;;;;;;;4.13;1.40;;;;;;;20.99;50.08;98555.13;4993256;28;20034;-58
2022/07/11 03:45:48;;;;;;;6.32;1.80;;;;;;;21.00;51.01;98554.09;4983607;28;20030;-60
2022/07/11 03:48:13;;;;;;;3.80;1.20;;;;;;;21.00;50.14;98558.56;5000091;28;20025;-59
2022/07/11 03:50:39;;;;;;;4.85;1.30;;;;;;;20.69;50.93;98512.63;4992695;28;20064;-61
2022/07/11 03:53:04;;;;;;;3.70;1.20;;;;;;;20.90;50.88;98548.44;5000562;28;20037;-60
2022/07/11 03:55:30;;;;;;;3.38;1.10;;;;;;;20.77;51.07;98527.41;5017859;28;20030;-60
2022/07/11 03:57:56;;;;;;;5.60;1.55;;;;;;;21.05;51.70;98564.03;5002436;28;20464;-59
2022/07/11 04:00:21;;;;;;;5.30;1.30;;;;;;;21.03;51.85;98560.81;5004504;28;20537;-59
2022/07/11 04:02:47;;;;;;;3.80;1.30;;;;;;;21.03;51.24;98568.72;5001685;28;20029;-59
2022/07/11 04:05:13;;;;;;;3.75;1.30;;;;;;;20.98;51.68;98577.28;5004100;28;20503;-60
2022/07/11 04:07:39;;;;;;;3.40;1.27;;;;;;;21.05;51.67;98575.41;4985621;28;20026;-59
2022/07/11 04:10:05;;;;;;;4.00;1.30;;;;;;;21.05;52.17;98577.25;5003945;28;20021;-59
2022/07/11 04:12:30;;;;;;;4.20;1.40;;;;;;;21.06;52.61;98577.00;5003252;28;20080;-58
2022/07/11 04:14:56;;;;;;;3.92;1.20;;;;;;;20.87;53.30;98562.13;4992215;28;20443;-59
2022/07/11 04:17:21;;;;;;;3.22;0.98;;;;;;;20.93;52.42;98587.69;5002105;28;20028;-59
2022/07/11 04:19:47;;;;;;;4.55;1.20;;;;;;;21.04;52.56;98579.06;5003631;28;20551;-59
2022/07/11 04:22:12;;;;;;;2.92;1.15;;;;;;;21.05;52.74;98590.47;5004540;28;20232;-60
2022/07/11 04:24:37;;;;;;;3.58;1.20;;;;;;;21.02;52.17;98588.25;5004325;28;20634;-59
2022/07/11 04:27:03;;;;;;;3.50;1.23;;;;;;;21.11;51.29;98587.75;5003221;28;20073;-59
2022/07/11 04:29:29;;;;;;;2.65;0.93;;;;;;;21.09;51.18;98594.31;5001777;28;20572;-60
2022/07/11 04:31:54;;;;;;;2.78;1.10;;;;;;;20.91;51.06;98569.38;5000071;28;20041;-61
2022/07/11 04:34:20;;;;;;;3.60;1.08;;;;;;;21.20;50.88;98604.19;4995433;28;20026;-58
2022/07/11 04:36:46;;;;;;;5.68;1.23;;;;;;;21.23;50.68;98601.13;5003174;28;20037;-58
2022/07/11 04:39:11;;;;;;;5.38;1.33;;;;;;;21.30;50.90;98599.25;5002887;28;20028;-59
2022/07/11 04:41:37;;;;;;;6.43;1.80;;;;;;;20.97;51.22;98561.63;5005333;28;20107;-59
2022/07/11 04:44:02;;;;;;;4.97;1.40;;;;;;;21.26;51.67;98605.97;5020439;28;20049;-58
2022/07/11 04:46:29;;;;;;;7.10;1.40;;;;;;;21.19;51.33;98602.59;5003646;28;20117;-59
2022/07/11 04:48:54;;;;;;;6.35;1.48;;;;;;;21.15;51.83;98617.22;5001592;28;20018;-59
2022/07/11 04:51:20;;;;;;;8.07;1.70;;;;;;;20.97;52.00;98599.44;4985255;28;20022;-60
2022/07/11 04:53:46;;;;;;;9.73;1.50;;;;;;;20.89;52.01;98597.06;5001658;28;20022;-60
2022/07/11 04:56:11;;;;;;;6.47;1.50;;;;;;;20.71;52.65;98584.53;5003768;28;20026;-59
2022/07/11 04:58:37;;;;;;;7.03;1.55;;;;;;;20.91;52.72;98616.97;5002193;28;20116;-60
2022/07/11 05:01:02;;;;;;;6.93;1.85;;;;;;;20.96;53.38;98613.69;5022318;28;20040;-58
2022/07/11 05:03:28;;;;;;;5.53;1.70;;;;;;;21.05;53.69;98624.84;5003280;28;20334;-61
2022/07/11 05:05:54;;;;;;;3.97;1.83;;;;;;;21.04;53.51;98631.13;5002220;28;20033;-59
2022/07/11 05:08:19;;;;;;;5.05;2.00;;;;;;;20.93;54.16;98625.47;4999183;28;20034;-60
2022/07/11 05:10:45;;;;;;;4.78;1.95;;;;;;;20.62;54.40;98577.88;5001820;28;20038;-59
2022/07/11 05:13:10;;;;;;;4.63;1.40;;;;;;;20.78;54.72;98587.16;5003123;28;20198;-59
2022/07/11 05:15:36;;;;;;;5.15;1.33;;;;;;;21.06;54.73;98631.72;5002493;28;20597;-60
2022/07/11 05:18:01;;;;;;;8.55;1.60;;;;;;;21.01;54.88;98618.31;4986359;28;20022;-60
2022/07/11 05:20:27;;;;;;;4.05;1.55;;;;;;;20.86;54.93;98603.59;5002439;28;20732;-59
2022/07/11 05:22:52;;;;;;;4.38;1.23;;;;;;;21.10;54.34;98630.28;5033350;28;20659;-60
2022/07/11 05:25:18;;;;;;;3.65;1.33;;;;;;;21.17;54.39;98640.81;5013961;28;20073;-60
2022/07/11 05:27:43;;;;;;;6.65;1.92;;;;;;;21.12;54.45;98626.41;5001401;28;20026;-61
2022/07/11 05:30:09;;;;;;;3.88;1.48;;;;;;;21.15;53.92;98641.03;4990932;28;20109;-61
2022/07/11 05:32:34;;;;;;;5.55;2.00;;;;;;;21.08;54.42;98640.25;4986050;28;20026;-60
2022/07/11 05:35:02;;;;;;;4.10;1.52;;;;;;;20.95;54.36;98642.97;5000125;28;20034;-60
2022/07/11 05:37:28;;;;;;;4.18;1.30;;;;;;;20.96;54.50;98655.19;4999500;28;20693;-60
2022/07/11 05:39:53;;;;;;;4.30;1.25;;;;;;;21.07;54.75;98650.03;4986347;28;20022;-61
2022/07/11 05:42:18;;;;;;;4.45;1.50;;;;;;;21.03;55.29;98655.97;5001059;28;20049;-60
2022/07/11 05:44:44;;;;;;;5.60;1.60;;;;;;;21.12;54.97;98658.13;5002323;28;20041;-60
2022/07/11 05:47:09;;;;;;;6.88;1.70;;;;;;;21.13;54.73;98672.94;5000689;28;20812;-60
2022/07/11 05:49:35;;;;;;;9.10;1.70;;;;;;;21.15;55.22;98670.09;5002449;28;20037;-60
2022/07/11 05:52:01;;;;;;;10.80;1.85;;;;;;;21.04;55.37;98668.94;5001925;28;20089;-59
2022/07/11 05:54:28;;;;;;;8.02;1.67;;;;;;;20.97;55.59;98659.44;5001080;28;20048;-60
2022/07/11 05:56:53;;;;;;;5.10;1.55;;;;;;;20.89;55.29;98666.56;5001647;28;20024;-65
2022/07/11 05:59:19;;;;;;;5.32;1.63;;;;;;;20.97;55.87;98670.81;5002382;28;20038;-60
2022/07/11 06:01:44;;;;;;;4.60;1.50;;;;;;;20.99;56.06;98663.50;5002029;28;20473;-60
2022/07/11 06:04:09;;;;;;;6.05;1.33;;;;;;;21.06;56.31;98666.09;5000893;28;20481;-63
2022/07/11 06:06:35;;;;;;;4.35;1.50;;;;;;;21.07;56.13;98667.72;4999777;28;20022;-61
2022/07/11 06:09:01;;;;;;;4.88;1.58;;;;;;;21.06;57.12;98669.53;5001189;28;20117;-60
2022/07/11 06:11:26;;;;;;;4.30;1.30;;;;;;;21.02;57.83;98668.34;5002385;28;20084;-60
2022/07/11 06:13:51;;;;;;;5.88;1.65;;;;;;;21.12;57.89;98678.47;5001022;28;20037;-60
2022/07/11 06:16:17;;;;;;;4.18;1.70;;;;;;;21.00;57.81;98669.59;5000610;28;20424;-59
2022/07/11 06:18:43;;;;;;;3.78;1.58;;;;;;;20.88;57.44;98643.00;5010648;28;20065;-60
2022/07/11 06:21:08;;;;;;;4.45;1.48;;;;;;;21.03;58.04;98661.25;4996605;28;20464;-60
2022/07/11 06:23:34;;;;;;;4.38;1.65;;;;;;;21.12;57.20;98657.34;4991645;28;20045;-60
2022/07/11 06:26:00;;;;;;;5.45;1.42;;;;;;;21.08;56.80;98642.91;4990648;28;20947;-60
2022/07/11 06:28:26;;;;;;;5.05;1.45;;;;;;;21.17;57.02;98659.31;4993007;28;20017;-60
2022/07/11 06:30:51;;;;;;;5.85;1.50;;;;;;;21.22;57.41;98655.03;5001433;28;20108;-60
2022/07/11 06:33:17;;;;;;;4.18;1.52;;;;;;;20.99;56.12;98615.09;5002254;28;20440;-60
2022/07/11 06:35:44;;;;;;;4.57;1.50;;;;;;;21.27;55.85;98657.84;5000373;28;20028;-60
2022/07/11 06:38:09;;;;;;;3.83;1.40;;;;;;;21.19;53.50;98650.19;4994537;28;20390;-61
2022/07/11 06:40:34;;;;;;;4.22;1.27;;;;;;;21.24;52.72;98660.91;5002705;28;20494;-61
2022/07/11 06:43:00;;;;;;;3.65;1.30;;;;;;;21.27;52.14;98647.25;4994519;28;20037;-60
2022/07/11 06:45:25;;;;;;;4.55;1.20;;;;;;;21.29;51.30;98655.78;4998840;28;20505;-60
2022/07/11 06:47:51;;;;;;;3.25;1.10;;;;;;;21.33;51.54;98655.38;4999010;28;20101;-61
2022/07/11 06:50:17;;;;;;;3.25;1.27;;;;;;;21.31;51.89;98661.69;4997391;28;20177;-60
2022/07/11 06:52:42;;;;;;;4.22;1.30;;;;;;;20.96;51.30;98615.53;5000644;28;20029;-60
2022/07/11 06:55:08;;;;;;;3.13;1.15;;;;;;;21.03;51.47;98618.94;5000984;28;20029;-60
2022/07/11 06:57:33;;;;;;;4.30;1.20;;;;;;;21.27;51.08;98663.13;4997919;28;20046;-62
2022/07/11 06:59:59;;;;;;;3.13;1.17;;;;;;;21.27;50.51;98662.31;5000810;28;20037;-59
2022/07/11 07:02:29;;;;;;;3.00;1.20;;;;;;;21.37;50.42;98662.66;5001009;28;20461;-59
2022/07/11 07:04:55;;;;;;;3.67;1.20;;;;;;;21.34;49.77;98663.09;5000621;28;20022;-60
2022/07/11 07:07:21;;;;;;;3.67;1.40;;;;;;;21.11;51.03;98634.56;4983531;28;20068;-60
2022/07/11 07:09:54;;;;;;;5.72;1.23;;;;;;;21.09;50.94;98628.66;4997292;28;20402;-61
2022/07/11 07:12:21;;;;;;;3.90;1.30;;;;;;;21.33;50.17;98664.09;4999295;28;20363;-60
2022/07/11 07:14:46;;;;;;;6.32;1.50;;;;;;;21.37;49.68;98662.66;5000038;28;20038;-60
2022/07/11 07:17:11;;;;;;;3.42;1.20;;;;;;;21.20;49.57;98630.63;4999666;28;20036;-59
2022/07/11 07:19:37;;;;;;;5.57;1.40;;;;;;;21.09;49.52;98605.69;5000110;28;20025;-60
2022/07/11 07:22:02;;;;;;;3.92;1.20;;;;;;;21.58;50.14;98658.88;4999092;28;20064;-59
2022/07/11 07:24:28;;;;;;;3.60;1.30;;;;;;;21.68;50.66;98653.94;5033387;28;20026;-63
2022/07/11 07:26:53;;;;;;;4.70;1.33;;;;;;;21.78;50.71;98666.69;4998347;28;20087;-60
2022/07/11 07:29:21;;;;;;;2.97;1.00;;;;;;;21.76;50.51;98659.97;4999719;28;20022;-59
2022/07/11 07:31:47;;;;;;;4.15;1.33;;;;;;;21.83;52.28;98656.25;4988621;28;20472;-59
2022/07/11 07:34:12;;;;;;;4.20;1.40;;;;;;;21.86;50.12;98657.66;5002136;28;20026;-61
2022/07/11 07:36:38;;;;;;;5.07;1.30;;;;;;;21.84;52.10;98652.56;5000446;28;20052;-60
2022/07/11 07:39:03;;;;;;;5.10;1.40;;;;;;;21.88;52.24;98661.69;5012917;28;20436;-61
2022/07/11 07:41:29;;;;;;;6.10;1.40;;;;;;;21.70;50.03;98632.53;4999212;28;20232;-59
2022/07/11 07:43:54;;;;;;;4.95;1.60;;;;;;;21.86;49.83;98657.66;4988958;28;20477;-61
2022/07/11 07:46:20;;;;;;;5.35;1.40;;;;;;;21.85;49.82;98656.03;4979546;28;20034;-61
2022/07/11 07:48:45;;;;;;;5.63;1.58;;;;;;;22.72;47.41;98663.94;4999508;28;20128;-60
2022/07/11 07:51:12;;;;;;;5.38;1.40;;;;;;;23.38;45.33;98669.41;5000248;28;20088;-61
2022/07/11 07:53:37;;;;;;;6.95;1.60;;;;;;;23.83;44.33;98666.31;4983409;28;20277;-61
2022/07/11 07:56:04;;;;;;;4.57;1.35;;;;;;;24.08;43.43;98633.44;4999962;28;20059;-60
2022/07/11 07:58:30;;;;;;;4.65;1.80;;;;;;;24.61;43.07;98660.88;4998459;28;20088;-61
2022/07/11 08:03:39;;;;;;;7.05;1.55;;;;;;;25.12;41.32;98653.88;4997381;28;20488;-60
2022/07/11 08:06:05;;;;;;;5.25;1.52;;;;;;;25.42;40.75;98650.16;4998518;28;20109;-60
2022/07/11 08:08:30;;;;;;;4.40;1.20;;;;;;;25.77;40.48;98655.25;4999340;28;20072;-60
2022/07/11 08:10:55;;;;;;;3.22;1.17;;;;;;;26.05;39.79;98602.97;4999412;28;20033;-61
2022/07/11 08:13:21;;;;;;;5.40;1.05;;;;;;;26.70;37.59;98657.38;5002788;28;20021;-60
2022/07/11 08:15:47;;;;;;;4.47;1.10;;;;;;;26.67;37.93;98647.22;5002842;28;20072;-60
2022/07/11 08:18:13;;;;;;;4.15;1.23;;;;;;;26.71;37.01;98651.00;5003385;28;20097;-61
2022/07/11 08:20:38;;;;;;;3.72;1.35;;;;;;;26.77;38.06;98639.31;4998234;28;20033;-60
2022/07/11 08:23:04;;;;;;;3.45;1.27;;;;;;;26.86;37.50;98637.03;4997768;28;20025;-62
2022/07/11 08:25:30;;;;;;;6.53;1.40;;;;;;;26.73;37.12;98643.56;5002340;28;20049;-61
2022/07/11 08:27:56;;;;;;;3.03;1.08;;;;;;;27.00;35.77;98640.91;4986309;28;20022;-60
2022/07/11 08:30:21;;;;;;;4.03;1.10;;;;;;;27.43;35.29;98638.38;5001736;28;20463;-59
2022/07/11 08:32:46;;;;;;;3.53;1.35;;;;;;;27.59;34.46;98637.47;5004241;28;20570;-60
2022/07/11 08:35:15;;;;;;;3.10;1.10;;;;;;;27.96;34.18;98635.88;5000199;28;20027;-60
2022/07/11 08:37:40;;;;;;;3.33;1.10;;;;;;;28.09;33.19;98637.28;4993368;28;20080;-61
2022/07/11 08:40:07;;;;;;;3.25;1.10;;;;;;;28.28;32.83;98630.44;4987072;28;20049;-61
2022/07/11 08:42:41;;;;;;;3.63;1.20;;;;;;;28.35;32.44;98627.53;5001864;28;20037;-60
2022/07/11 08:45:09;;;;;;;3.55;1.02;;;;;;;28.44;31.99;98598.41;4981447;28;20041;-61
2022/07/11 08:47:35;;;;;;;2.70;0.90;;;;;;;28.79;32.45;98621.84;5002085;28;20026;-60
2022/07/11 08:50:01;;;;;;;3.80;1.17;;;;;;;28.66;33.37;98625.81;5002730;28;20018;-61
2022/07/11 08:52:27;;;;;;;2.65;1.00;;;;;;;28.72;32.24;98619.41;5002598;28;20118;-60
2022/07/11 08:54:53;;;;;;;4.75;1.40;;;;;;;28.93;33.54;98590.84;5002203;28;20018;-61
2022/07/11 08:57:18;;;;;;;5.50;1.35;;;;;;;28.74;35.65;98582.50;5002543;28;20080;-60
2022/07/11 08:59:46;;;;;;;3.10;1.20;;;;;;;28.89;36.33;98616.50;4995434;28;20022;-60
2022/07/11 09:02:12;;;;;;;3.30;1.30;;;;;;;29.01;35.26;98612.78;4998128;28;20022;-59
2022/07/11 09:04:37;;;;;;;3.65;1.10;;;;;;;28.50;35.39;98611.56;4985985;28;20038;-59
2022/07/11 09:07:03;;;;;;;3.88;1.17;;;;;;;28.27;35.17;98569.22;5002030;28;20033;-61
2022/07/11 09:09:29;;;;;;;3.00;1.08;;;;;;;28.49;34.33;98582.41;5001650;28;20036;-61
2022/07/11 09:11:56;;;;;;;3.60;1.10;;;;;;;28.69;33.72;98600.41;5001653;28;20045;-60
2022/07/11 09:14:30;;;;;;;3.53;1.10;;;;;;;28.82;33.95;98605.25;5001884;28;20029;-61
2022/07/11 09:17:00;;;;;;;3.45;1.00;;;;;;;28.41;34.59;98602.44;5001839;28;20018;-62
2022/07/11 09:19:27;;;;;;;3.63;1.20;;;;;;;28.52;33.88;98593.38;4992673;28;20026;-60
2022/07/11 09:28:06;;;;;;;2.97;1.10;;;;;;;29.60;33.21;98566.75;5001807;28;20037;-61
2022/07/11 09:30:35;;;;;;;3.13;1.15;;;;;;;29.61;32.53;98580.94;5001699;28;20061;-60
2022/07/11 09:33:09;;;;;;;3.40;1.10;;;;;;;29.50;33.20;98580.97;4998720;28;20029;-60
2022/07/11 09:35:36;;;;;;;3.30;1.17;;;;;;;29.67;32.96;98587.91;5001447;28;20571;-61
2022/07/11 09:38:06;;;;;;;3.25;1.10;;;;;;;29.47;32.13;98578.03;4995669;28;20022;-60
2022/07/11 09:40:33;;;;;;;4.18;1.35;;;;;;;29.62;32.95;98582.56;5002674;28;20025;-60
2022/07/11 09:42:59;;;;;;;3.65;1.45;;;;;;;29.96;33.14;98585.47;4991389;28;20033;-62
2022/07/11 09:45:27;;;;;;;3.97;1.20;;;;;;;29.65;33.29;98572.09;5001644;28;20030;-62
2022/07/11 09:47:54;;;;;;;3.22;1.10;;;;;;;29.30;34.28;98589.81;4999301;28;20101;-60
2022/07/11 09:50:21;;;;;;;3.25;1.20;;;;;;;29.35;33.36;98582.84;4999162;28;20635;-62
2022/07/11 09:53:08;;;;;;;3.22;1.10;;;;;;;29.65;33.43;98579.34;4992730;28;20022;-60
2022/07/11 09:55:46;;;;;;;3.15;1.15;;;;;;;29.43;33.49;98583.13;4989776;28;20469;-62
2022/07/11 09:58:13;;;;;;;2.95;1.10;;;;;;;29.17;33.56;98554.72;5000291;28;20038;-60
2022/07/11 10:00:40;;;;;;;2.60;1.00;;;;;;;29.38;33.61;98568.94;5001104;28;20408;-61
2022/07/11 10:03:07;;;;;;;3.53;1.05;;;;;;;29.04;34.21;98575.59;5007498;28;20083;-62
2022/07/11 10:05:32;;;;;;;5.75;1.20;;;;;;;28.66;34.58;98569.66;5017016;28;20018;-61
2022/07/11 10:07:58;;;;;;;4.15;1.20;;;;;;;28.45;35.79;98571.41;4997274;28;20371;-59
2022/07/11 10:10:26;;;;;;;3.50;1.35;;;;;;;28.12;36.28;98578.78;4982369;28;20426;-60
2022/07/11 10:12:52;;;;;;;3.28;1.17;;;;;;;27.77;36.42;98568.69;4999438;28;20044;-60
2022/07/11 10:15:23;;;;;;;5.55;1.30;;;;;;;27.69;36.09;98561.97;4999580;28;20512;-59
2022/07/11 10:18:05;;;;;;;4.75;1.52;;;;;;;27.85;33.72;98567.38;5000641;28;20021;-60
2022/07/11 10:20:35;;;;;;;3.50;1.30;;;;;;;27.85;34.19;98570.84;5008811;28;20136;-61
2022/07/11 10:23:20;;;;;;;4.97;1.50;;;;;;;27.61;33.64;98565.91;5006202;28;20010;-60
2022/07/11 10:26:00;;;;;;;5.10;1.50;;;;;;;27.24;37.16;98509.84;4981529;28;20021;-61
2022/07/11 10:28:31;;;;;;;4.75;1.42;;;;;;;27.34;38.65;98568.63;4997797;28;20061;-60
2022/07/11 10:31:01;;;;;;;5.15;1.20;;;;;;;27.22;37.92;98568.00;5019512;28;20022;-59
2022/07/11 10:33:27;;;;;;;4.18;1.33;;;;;;;27.12;36.61;98536.69;4994066;28;20014;-59
2022/07/11 10:35:54;;;;;;;3.85;1.30;;;;;;;27.30;34.60;98561.41;5001292;28;20155;-60
2022/07/11 10:38:20;;;;;;;6.05;1.60;;;;;;;27.23;37.57;98556.25;5000325;28;20028;-60
2022/07/11 10:40:56;;;;;;;4.57;1.40;;;;;;;27.10;37.50;98522.00;5000536;28;20029;-58
2022/07/11 10:43:21;;;;;;;3.75;1.45;;;;;;;27.47;37.61;98554.06;5003589;28;20101;-58
2022/07/11 10:46:01;;;;;;;4.20;1.60;;;;;;;27.46;36.12;98549.78;5001887;28;20549;-59
2022/07/11 10:48:30;;;;;;;3.85;1.40;;;;;;;27.12;37.67;98517.22;4983838;28;20907;-60
2022/07/11 10:51:24;;;;;;;4.03;1.33;;;;;;;27.07;35.65;98530.50;5000444;28;20022;-59
2022/07/11 10:53:51;;;;;;;4.13;1.55;;;;;;;27.10;34.62;98512.13;4996389;28;20026;-60
2022/07/11 10:56:40;;;;;;;4.63;1.65;;;;;;;27.55;33.71;98542.91;4999390;28;20030;-57
2022/07/11 10:59:16;;;;;;;4.38;1.30;;;;;;;27.92;33.49;98507.34;4994805;28;20033;-60
2022/07/11 11:02:07;;;;;;;3.80;1.40;;;;;;;28.10;34.94;98545.38;4999297;28;20032;-58
2022/07/11 11:04:44;;;;;;;4.28;1.20;;;;;;;28.17;33.73;98546.72;4994850;28;20045;-58
2022/07/11 11:07:35;;;;;;;4.18;1.60;;;;;;;28.12;33.29;98541.34;5000014;28;20077;-59
2022/07/11 11:10:04;;;;;;;4.80;1.55;;;;;;;28.19;32.31;98525.88;5000518;28;20104;-60
2022/07/11 11:13:11;;;;;;;3.70;1.50;;;;;;;28.21;32.43;98532.84;5000644;28;20026;-60
2022/07/11 11:15:45;;;;;;;5.32;1.50;;;;;;;28.20;33.59;98532.03;4989934;28;20065;-60
2022/07/11 11:18:23;;;;;;;3.60;1.33;;;;;;;28.45;32.48;98533.97;4997570;28;20018;-59
2022/07/11 11:20:57;;;;;;;4.18;1.40;;;;;;;28.34;33.60;98530.47;5012712;28;20058;-60
2022/07/11 11:23:23;;;;;;;4.53;1.25;;;;;;;28.28;33.99;98531.53;5001244;28;20792;-59
2022/07/11 11:25:49;;;;;;;5.82;1.60;;;;;;;28.44;33.18;98528.91;4997484;28;20080;-59
2022/07/11 11:28:21;;;;;;;4.22;1.60;;;;;;;28.41;33.57;98527.56;4984850;28;20026;-59
2022/07/11 11:30:57;;;;;;;2.85;1.15;;;;;;;28.24;34.02;98494.88;4979878;28;20026;-59
2022/07/11 11:33:25;;;;;;;3.65;1.50;;;;;;;28.45;32.05;98520.63;4997143;28;20056;-59
2022/07/11 11:36:05;;;;;;;3.53;1.40;;;;;;;28.28;32.53;98518.16;4998359;28;20044;-59
2022/07/11 11:38:40;;;;;;;5.57;1.55;;;;;;;28.29;33.28;98514.41;4999046;28;20512;-59
2022/07/11 11:41:07;;;;;;;4.00;1.48;;;;;;;28.35;33.62;98515.25;4999642;28;20025;-59
2022/07/11 11:43:33;;;;;;;3.38;1.38;;;;;;;28.52;33.83;98521.16;4994648;28;20018;-59